createdAt,value
2023-03-31T00:02:23.105Z,65.30
2023-03-31T00:04:55.186Z,23.00
2023-03-31T00:07:27.283Z,33.20
2023-03-31T00:10:16.529Z,37.50
2023-03-31T00:12:49.621Z,26.30
2023-03-31T00:15:21.808Z,19.50
2023-03-31T00:17:53.988Z,19.20
2023-03-31T00:20:25.944Z,23.70
2023-03-31T00:22:57.933Z,17.20
2023-03-31T00:25:30.200Z,37.50
2023-03-31T00:28:02.192Z,15.80
2023-03-31T00:30:34.534Z,16.50
2023-03-31T00:33:06.998Z,16.00
2023-03-31T00:35:40.345Z,10.90
2023-03-31T00:38:13.981Z,14.80
2023-03-31T00:40:50.250Z,14.60
2023-03-31T00:43:33.696Z,12.80
2023-03-31T00:46:17.153Z,18.00
2023-03-31T00:48:52.320Z,14.40
2023-03-31T00:51:25.554Z,11.30
2023-03-31T00:54:02.066Z,13.50
2023-03-31T00:56:39.236Z,19.10
2023-03-31T00:59:14.632Z,14.60
2023-03-31T01:01:50.637Z,17.00
2023-03-31T01:04:24.026Z,16.50
2023-03-31T01:07:02.438Z,20.20
2023-03-31T01:09:36.012Z,19.50
2023-03-31T01:12:11.780Z,18.60
2023-03-31T01:14:44.879Z,15.90
2023-03-31T01:17:23.391Z,22.70
2023-03-31T01:20:12.611Z,45.70
2023-03-31T01:23:15.855Z,30.90
2023-03-31T01:26:24.624Z,23.20
2023-03-31T01:29:02.925Z,17.00
2023-03-31T01:32:15.545Z,17.80
2023-03-31T01:35:26.228Z,19.70
2023-03-31T01:41:19.016Z,14.60
2023-03-31T01:43:58.045Z,11.60
2023-03-31T01:46:34.146Z,15.90
2023-03-31T01:49:16.516Z,17.50
2023-03-31T01:51:59.149Z,11.70
2023-03-31T01:54:40.536Z,19.90
2023-03-31T01:57:17.724Z,14.10
2023-03-31T01:59:54.202Z,16.10
2023-03-31T02:02:32.522Z,15.50
2023-03-31T02:05:09.115Z,18.50
2023-03-31T02:07:48.130Z,31.80
2023-03-31T02:10:22.248Z,20.40
2023-03-31T02:12:54.918Z,19.80
2023-03-31T02:15:31.475Z,21.20
2023-03-31T02:18:11.137Z,17.10
2023-03-31T02:20:48.416Z,20.40
2023-03-31T02:23:26.768Z,17.50
2023-03-31T02:26:06.020Z,20.40
2023-03-31T02:28:39.128Z,24.00
2023-03-31T02:31:24.961Z,21.40
2023-03-31T02:33:57.617Z,15.40
2023-03-31T02:36:30.157Z,17.60
2023-03-31T02:39:07.740Z,15.20
2023-03-31T02:41:40.208Z,16.20
2023-03-31T02:44:12.626Z,19.20
2023-03-31T02:46:45.273Z,16.10
2023-03-31T02:49:18.741Z,21.70
2023-03-31T02:52:13.173Z,25.00
2023-03-31T02:55:09.290Z,22.80
2023-03-31T02:58:03.844Z,19.60
2023-03-31T03:00:53.567Z,23.10
2023-03-31T03:03:38.017Z,22.10
2023-03-31T03:06:30.322Z,19.20
2023-03-31T03:09:18.494Z,20.90
2023-03-31T03:12:02.305Z,20.90
2023-03-31T03:14:41.038Z,30.70
2023-03-31T03:17:18.158Z,43.00
2023-03-31T03:19:54.980Z,43.90
2023-03-31T03:22:27.466Z,40.00
2023-03-31T03:24:59.542Z,26.00
2023-03-31T03:27:31.503Z,25.20
2023-03-31T03:30:04.966Z,25.10
2023-03-31T03:32:37.268Z,27.60
2023-03-31T03:35:10.406Z,24.30
2023-03-31T03:37:42.382Z,24.50
2023-03-31T03:40:15.456Z,24.30
2023-03-31T03:42:48.186Z,28.90
2023-03-31T03:45:20.272Z,27.00
2023-03-31T03:47:52.286Z,38.00
2023-03-31T03:50:24.694Z,35.90
2023-03-31T03:52:56.660Z,26.30
2023-03-31T03:55:29.074Z,26.60
2023-03-31T03:58:01.078Z,22.10
2023-03-31T04:03:43.546Z,28.90
2023-03-31T04:06:18.142Z,22.50
2023-03-31T04:08:50.122Z,22.30
2023-03-31T04:11:22.209Z,23.40
2023-03-31T04:13:54.759Z,26.20
2023-03-31T04:16:27.136Z,27.00
2023-03-31T04:18:59.749Z,31.90
2023-03-31T04:21:35.135Z,96.50
2023-03-31T04:24:08.413Z,121.30
2023-03-31T04:26:43.994Z,58.40
2023-03-31T04:29:17.662Z,25.80
2023-03-31T04:31:52.864Z,23.70
2023-03-31T04:34:26.750Z,25.30
2023-03-31T04:37:02.801Z,24.70
2023-03-31T04:39:34.799Z,27.30
2023-03-31T04:42:06.902Z,25.20
2023-03-31T04:44:38.910Z,22.30
2023-03-31T04:47:10.979Z,20.00
2023-03-31T04:49:43.121Z,19.70
2023-03-31T04:52:15.445Z,23.00
2023-03-31T04:54:47.884Z,19.00
2023-03-31T04:57:19.993Z,22.00
2023-03-31T04:59:52.217Z,22.40
2023-03-31T05:02:25.452Z,20.10
2023-03-31T05:04:58.056Z,22.00
2023-03-31T05:07:30.437Z,22.20
2023-03-31T05:10:02.460Z,22.20
2023-03-31T05:12:37.226Z,21.80
2023-03-31T05:15:10.922Z,24.90
2023-03-31T05:17:42.883Z,23.50
2023-03-31T05:20:15.689Z,25.60
2023-03-31T05:22:48.122Z,24.00
2023-03-31T05:25:20.423Z,22.60
2023-03-31T05:27:52.855Z,21.20
2023-03-31T05:30:26.436Z,28.40
2023-03-31T05:32:58.781Z,22.50
2023-03-31T05:35:31.237Z,21.50
2023-03-31T05:38:03.147Z,18.60
2023-03-31T05:40:35.105Z,19.40
2023-03-31T05:43:11.669Z,22.60
2023-03-31T05:45:43.631Z,16.60
2023-03-31T05:48:15.581Z,15.30
2023-03-31T05:50:47.569Z,17.50
2023-03-31T05:53:19.727Z,14.60
2023-03-31T05:55:51.837Z,14.40
2023-03-31T05:58:23.838Z,16.50
2023-03-31T06:01:06.292Z,15.20
2023-03-31T06:03:41.339Z,27.20
2023-03-31T06:06:15.163Z,18.60
2023-03-31T06:08:48.667Z,19.40
2023-03-31T06:11:23.266Z,15.70
2023-03-31T06:13:55.250Z,18.90
2023-03-31T06:16:29.219Z,15.10
2023-03-31T06:19:01.412Z,16.30
2023-03-31T06:21:33.968Z,15.20
2023-03-31T06:24:06.224Z,12.40
2023-03-31T06:26:38.465Z,22.60
2023-03-31T06:29:10.465Z,12.20
2023-03-31T06:31:42.543Z,20.60
2023-03-31T06:34:14.561Z,17.10
2023-03-31T06:36:46.565Z,19.50
2023-03-31T06:39:18.992Z,11.70
2023-03-31T06:41:51.058Z,14.50
2023-03-31T06:44:28.014Z,12.60
2023-03-31T06:47:00.161Z,21.10
2023-03-31T06:49:34.551Z,17.20
2023-03-31T06:52:07.138Z,12.10
2023-03-31T06:54:40.613Z,21.50
2023-03-31T06:57:12.909Z,13.10
2023-03-31T06:59:44.967Z,10.80
2023-03-31T07:02:17.026Z,11.40
2023-03-31T07:04:50.158Z,14.50
2023-03-31T07:07:22.739Z,14.90
2023-03-31T07:09:56.393Z,32.30
2023-03-31T07:12:28.699Z,13.40
2023-03-31T07:15:00.760Z,16.10
2023-03-31T07:17:33.025Z,27.60
2023-03-31T07:20:10.676Z,48.50
2023-03-31T07:22:43.138Z,16.10
2023-03-31T07:25:16.952Z,8.10
2023-03-31T07:27:49.124Z,11.20
2023-03-31T07:30:22.910Z,11.80
2023-03-31T07:32:58.237Z,21.50
2023-03-31T07:35:31.325Z,35.00
2023-03-31T07:38:03.814Z,18.30
2023-03-31T07:40:36.031Z,58.60
2023-03-31T07:43:08.609Z,15.70
2023-03-31T07:45:42.013Z,14.50
2023-03-31T07:51:26.243Z,14.60
2023-03-31T07:54:01.779Z,14.20
2023-03-31T07:56:33.868Z,7.90
2023-03-31T07:59:06.608Z,7.90
2023-03-31T08:01:38.760Z,21.50
2023-03-31T08:04:13.037Z,6.30
2023-03-31T08:06:45.110Z,5.90
2023-03-31T08:09:17.773Z,6.40
2023-03-31T08:11:50.194Z,4.90
2023-03-31T08:14:34.169Z,4.60
2023-03-31T08:17:13.831Z,12.10
2023-03-31T08:19:45.790Z,6.30
2023-03-31T08:22:17.850Z,5.10
2023-03-31T08:24:51.788Z,19.00
2023-03-31T08:27:26.684Z,18.10
2023-03-31T08:30:06.346Z,8.60
2023-03-31T08:32:44.024Z,5.50
2023-03-31T08:35:16.224Z,4.80
2023-03-31T08:37:48.371Z,10.70
2023-03-31T08:40:24.265Z,6.50
2023-03-31T08:42:59.510Z,7.00
2023-03-31T08:45:35.499Z,8.10
2023-03-31T08:48:18.213Z,8.20
2023-03-31T08:50:54.569Z,8.60
2023-03-31T08:53:30.750Z,11.90
2023-03-31T08:56:06.337Z,10.00
2023-03-31T08:58:44.650Z,8.50
2023-03-31T09:01:28.484Z,10.30
2023-03-31T09:04:17.885Z,6.30
2023-03-31T09:06:58.513Z,9.90
2023-03-31T09:09:41.186Z,5.90
2023-03-31T09:12:17.967Z,12.50
2023-03-31T09:14:59.250Z,7.10
2023-03-31T09:17:35.418Z,6.40
2023-03-31T09:20:14.265Z,7.60
2023-03-31T09:22:50.220Z,6.20
2023-03-31T09:25:26.616Z,8.10
2023-03-31T09:28:02.390Z,15.80
2023-03-31T09:30:38.225Z,7.40
2023-03-31T09:33:17.000Z,4.50
2023-03-31T09:35:51.369Z,5.00
2023-03-31T09:38:24.203Z,5.30
2023-03-31T09:40:56.340Z,4.40
2023-03-31T09:43:31.528Z,4.00
2023-03-31T09:46:14.752Z,4.80
2023-03-31T09:48:56.396Z,5.80
2023-03-31T09:51:37.345Z,6.70
2023-03-31T09:56:53.189Z,4.70
2023-03-31T09:59:31.764Z,7.10
2023-03-31T10:02:07.204Z,6.00
2023-03-31T10:04:48.138Z,5.90
2023-03-31T10:07:25.637Z,5.10
2023-03-31T10:09:58.413Z,3.90
2023-03-31T10:12:32.526Z,8.90
2023-03-31T10:15:20.870Z,3.00
2023-03-31T10:17:55.338Z,3.40
2023-03-31T10:20:35.861Z,5.10
2023-03-31T10:23:16.932Z,4.40
2023-03-31T10:25:49.526Z,3.90
2023-03-31T10:28:23.921Z,4.30
2023-03-31T10:31:00.857Z,19.30
2023-03-31T10:33:35.855Z,6.00
2023-03-31T10:36:16.918Z,5.20
2023-03-31T10:38:50.231Z,4.10
2023-03-31T10:41:25.798Z,3.00
2023-03-31T10:44:02.420Z,3.10
2023-03-31T10:46:47.805Z,4.40
2023-03-31T10:49:27.645Z,4.00
2023-03-31T10:52:01.924Z,4.10
2023-03-31T10:57:51.120Z,6.30
2023-03-31T11:00:34.065Z,5.30
2023-03-31T11:03:39.046Z,4.50
2023-03-31T11:06:17.857Z,4.70
2023-03-31T11:09:01.338Z,4.70
2023-03-31T11:11:50.741Z,5.80
2023-03-31T11:14:31.020Z,5.20
2023-03-31T11:17:11.693Z,4.60
2023-03-31T11:19:57.343Z,7.80
2023-03-31T11:22:37.646Z,7.70
2023-03-31T11:25:23.512Z,6.10
2023-03-31T11:28:22.919Z,9.10
2023-03-31T11:31:05.655Z,5.10
2023-03-31T11:33:58.416Z,10.10
2023-03-31T11:36:59.354Z,6.60
2023-03-31T11:39:47.559Z,10.90
2023-03-31T11:42:24.132Z,10.10
2023-03-31T11:45:04.219Z,9.30
2023-03-31T11:47:42.339Z,7.20
2023-03-31T11:50:17.698Z,7.60
2023-03-31T11:52:55.425Z,5.00
2023-03-31T11:55:29.711Z,3.70
2023-03-31T11:58:07.124Z,9.20
2023-03-31T12:00:43.390Z,4.90
2023-03-31T12:03:21.202Z,7.40
2023-03-31T12:05:57.033Z,24.50
2023-03-31T12:08:34.561Z,7.20
2023-03-31T12:11:12.167Z,6.30
2023-03-31T12:13:52.387Z,8.20
2023-03-31T12:16:28.303Z,8.20
2023-03-31T12:19:08.018Z,6.90
2023-03-31T12:21:45.438Z,9.10
2023-03-31T12:24:17.465Z,8.00
2023-03-31T12:26:59.250Z,5.40
2023-03-31T12:29:35.719Z,6.50
2023-03-31T12:32:13.091Z,7.60
2023-03-31T12:34:56.947Z,4.00
2023-03-31T12:38:01.615Z,31.40
2023-03-31T12:40:48.091Z,7.70
2023-03-31T12:43:52.623Z,10.10
2023-03-31T12:46:44.962Z,5.30
2023-03-31T12:49:29.087Z,8.30
2023-03-31T12:52:08.101Z,6.30
2023-03-31T12:54:58.992Z,5.90
2023-03-31T12:57:31.369Z,7.20
2023-03-31T13:00:25.557Z,9.00
2023-03-31T13:03:25.173Z,6.80
2023-03-31T13:05:57.919Z,7.50
2023-03-31T13:08:53.987Z,5.60
2023-03-31T13:11:39.939Z,9.40
2023-03-31T13:14:18.961Z,6.60
2023-03-31T13:19:48.393Z,9.40
2023-03-31T13:22:35.327Z,10.30
2023-03-31T13:25:34.694Z,10.30
2023-03-31T13:28:16.812Z,9.60
2023-03-31T13:30:51.811Z,6.60
2023-03-31T13:33:27.722Z,8.90
2023-03-31T13:36:19.769Z,6.60
2023-03-31T13:39:04.237Z,8.50
2023-03-31T13:41:51.304Z,9.70
2023-03-31T13:44:41.084Z,13.30
2023-03-31T13:47:48.818Z,7.50
2023-03-31T13:50:37.164Z,9.40
2023-03-31T13:53:23.074Z,10.70
2023-03-31T13:56:19.689Z,12.30
2023-03-31T13:59:12.620Z,8.80
2023-03-31T14:01:57.680Z,22.90
2023-03-31T14:04:52.393Z,23.10
2023-03-31T14:07:30.351Z,25.50
2023-03-31T14:10:04.444Z,27.70
2023-03-31T14:12:38.363Z,11.30
2023-03-31T14:15:21.994Z,10.90
2023-03-31T14:17:54.825Z,8.40
2023-03-31T14:20:35.199Z,7.60
2023-03-31T14:23:19.496Z,10.60
2023-03-31T14:26:01.891Z,10.40
2023-03-31T14:28:58.299Z,17.80
2023-03-31T14:31:35.488Z,12.80
2023-03-31T14:34:24.851Z,9.90
2023-03-31T14:37:02.105Z,21.00
2023-03-31T14:39:37.582Z,14.70
2023-03-31T14:42:15.284Z,9.30
2023-03-31T14:44:48.705Z,12.90
2023-03-31T14:47:24.221Z,9.60
2023-03-31T14:50:05.201Z,9.30
2023-03-31T14:52:38.348Z,5.30
2023-03-31T14:55:17.462Z,6.40
2023-03-31T14:57:51.316Z,3.90
2023-03-31T15:00:29.324Z,7.20
2023-03-31T15:03:04.907Z,8.40
2023-03-31T15:05:39.504Z,6.70
2023-03-31T15:08:17.736Z,8.20
2023-03-31T15:10:58.953Z,9.20
2023-03-31T15:13:44.286Z,10.10
2023-03-31T15:16:34.959Z,7.50
2023-03-31T15:19:13.420Z,7.90
2023-03-31T15:21:45.906Z,10.90
2023-03-31T15:24:18.577Z,9.40
2023-03-31T15:26:56.975Z,9.60
2023-03-31T15:29:37.953Z,10.50
2023-03-31T15:32:17.437Z,8.90
2023-03-31T15:34:51.860Z,10.00
2023-03-31T15:37:32.727Z,7.80
2023-03-31T15:40:11.181Z,9.60
2023-03-31T15:45:47.116Z,8.20
2023-03-31T15:48:24.152Z,9.00
2023-03-31T15:51:02.695Z,16.00
2023-03-31T15:53:39.040Z,8.80
2023-03-31T15:56:25.155Z,13.60
2023-03-31T15:59:00.008Z,9.00
2023-03-31T16:01:35.080Z,15.60
2023-03-31T16:04:11.361Z,11.10
2023-03-31T16:06:48.533Z,11.00
2023-03-31T16:09:29.218Z,9.10
2023-03-31T16:12:06.114Z,9.50
2023-03-31T16:14:44.689Z,11.20
2023-03-31T16:17:26.106Z,8.60
2023-03-31T16:20:05.244Z,9.90
2023-03-31T16:22:42.286Z,10.80
2023-03-31T16:25:18.815Z,9.20
2023-03-31T16:27:53.015Z,8.70
2023-03-31T16:30:37.311Z,14.50
2023-03-31T16:33:11.234Z,15.00
2023-03-31T16:35:45.147Z,14.90
2023-03-31T16:38:17.515Z,14.50
2023-03-31T16:40:52.122Z,17.30
2023-03-31T16:43:25.264Z,17.20
2023-03-31T16:45:58.634Z,16.20
2023-03-31T16:48:32.038Z,20.30
2023-03-31T16:51:04.240Z,15.50
2023-03-31T16:53:37.247Z,15.30
2023-03-31T16:56:10.174Z,16.20
2023-03-31T16:58:43.762Z,20.90
2023-03-31T17:01:16.040Z,22.10
2023-03-31T17:03:50.290Z,20.30
2023-03-31T17:06:22.632Z,21.20
2023-03-31T17:08:54.800Z,23.90
2023-03-31T17:11:27.446Z,19.60
2023-03-31T17:14:00.295Z,13.50
2023-03-31T17:19:27.343Z,16.80
